sensor_id;sensor_type;location;lat;lon;timestamp;P1;durP1;ratioP1;P2;durP2;ratioP2
80384;SDS011;69702;44.618;33.604;2024-02-14T00:00:34;13.73;;;6.00;;
80384;SDS011;69702;44.618;33.604;2024-02-14T00:03:00;11.43;;;5.78;;
80384;SDS011;69702;44.618;33.604;2024-02-14T00:05:27;14.20;;;6.00;;
80384;SDS011;69702;44.618;33.604;2024-02-14T00:07:54;11.27;;;5.63;;
80384;SDS011;69702;44.618;33.604;2024-02-14T00:10:20;11.90;;;6.50;;
80384;SDS011;69702;44.618;33.604;2024-02-14T00:12:46;12.10;;;6.35;;
80384;SDS011;69702;44.618;33.604;2024-02-14T00:15:13;11.88;;;6.45;;
80384;SDS011;69702;44.618;33.604;2024-02-14T00:17:38;14.60;;;7.17;;
80384;SDS011;69702;44.618;33.604;2024-02-14T00:20:05;16.33;;;7.75;;
80384;SDS011;69702;44.618;33.604;2024-02-14T00:22:46;14.63;;;7.70;;
80384;SDS011;69702;44.618;33.604;2024-02-14T00:25:12;15.82;;;7.20;;
80384;SDS011;69702;44.618;33.604;2024-02-14T00:27:47;14.25;;;7.25;;
80384;SDS011;69702;44.618;33.604;2024-02-14T00:30:13;13.87;;;7.20;;
80384;SDS011;69702;44.618;33.604;2024-02-14T00:32:59;12.98;;;6.68;;
80384;SDS011;69702;44.618;33.604;2024-02-14T00:35:25;10.68;;;6.50;;
80384;SDS011;69702;44.618;33.604;2024-02-14T00:37:51;11.77;;;6.30;;
80384;SDS011;69702;44.618;33.604;2024-02-14T00:40:17;9.88;;;5.45;;
80384;SDS011;69702;44.618;33.604;2024-02-14T00:42:43;9.75;;;5.93;;
80384;SDS011;69702;44.618;33.604;2024-02-14T00:45:09;8.63;;;5.27;;
80384;SDS011;69702;44.618;33.604;2024-02-14T00:47:35;8.65;;;5.25;;
80384;SDS011;69702;44.618;33.604;2024-02-14T00:50:02;10.07;;;5.65;;
80384;SDS011;69702;44.618;33.604;2024-02-14T00:52:32;10.02;;;5.68;;
80384;SDS011;69702;44.618;33.604;2024-02-14T00:54:58;10.20;;;5.55;;
80384;SDS011;69702;44.618;33.604;2024-02-14T00:57:24;11.30;;;6.45;;
80384;SDS011;69702;44.618;33.604;2024-02-14T00:59:52;11.13;;;6.28;;
80384;SDS011;69702;44.618;33.604;2024-02-14T01:02:18;11.13;;;6.57;;
80384;SDS011;69702;44.618;33.604;2024-02-14T01:04:44;10.60;;;6.50;;
80384;SDS011;69702;44.618;33.604;2024-02-14T01:07:10;10.90;;;6.47;;
80384;SDS011;69702;44.618;33.604;2024-02-14T01:09:36;11.27;;;6.60;;
80384;SDS011;69702;44.618;33.604;2024-02-14T01:12:02;10.43;;;6.23;;
80384;SDS011;69702;44.618;33.604;2024-02-14T01:14:28;11.23;;;6.45;;
80384;SDS011;69702;44.618;33.604;2024-02-14T01:16:54;11.77;;;7.20;;
80384;SDS011;69702;44.618;33.604;2024-02-14T01:19:20;13.45;;;6.70;;
80384;SDS011;69702;44.618;33.604;2024-02-14T01:21:46;12.27;;;6.53;;
80384;SDS011;69702;44.618;33.604;2024-02-14T01:24:14;12.40;;;7.13;;
80384;SDS011;69702;44.618;33.604;2024-02-14T01:26:40;11.88;;;6.93;;
80384;SDS011;69702;44.618;33.604;2024-02-14T01:29:06;11.47;;;6.97;;
80384;SDS011;69702;44.618;33.604;2024-02-14T01:31:32;12.82;;;7.35;;
80384;SDS011;69702;44.618;33.604;2024-02-14T01:33:59;12.32;;;7.00;;
80384;SDS011;69702;44.618;33.604;2024-02-14T01:36:28;12.05;;;7.13;;
80384;SDS011;69702;44.618;33.604;2024-02-14T01:38:54;12.70;;;7.47;;
80384;SDS011;69702;44.618;33.604;2024-02-14T01:41:20;12.17;;;7.20;;
80384;SDS011;69702;44.618;33.604;2024-02-14T01:43:47;11.38;;;6.70;;
80384;SDS011;69702;44.618;33.604;2024-02-14T01:46:13;12.60;;;7.03;;
80384;SDS011;69702;44.618;33.604;2024-02-14T01:48:52;12.73;;;7.18;;
80384;SDS011;69702;44.618;33.604;2024-02-14T01:51:19;11.57;;;6.13;;
80384;SDS011;69702;44.618;33.604;2024-02-14T01:53:45;13.07;;;6.78;;
80384;SDS011;69702;44.618;33.604;2024-02-14T01:56:12;13.98;;;7.60;;
80384;SDS011;69702;44.618;33.604;2024-02-14T01:58:38;13.20;;;7.25;;
80384;SDS011;69702;44.618;33.604;2024-02-14T02:01:04;12.48;;;6.93;;
80384;SDS011;69702;44.618;33.604;2024-02-14T02:03:30;12.38;;;7.05;;
80384;SDS011;69702;44.618;33.604;2024-02-14T02:06:01;11.50;;;6.40;;
80384;SDS011;69702;44.618;33.604;2024-02-14T02:08:27;11.70;;;6.22;;
80384;SDS011;69702;44.618;33.604;2024-02-14T02:10:53;11.57;;;5.95;;
80384;SDS011;69702;44.618;33.604;2024-02-14T02:13:38;10.73;;;6.00;;
80384;SDS011;69702;44.618;33.604;2024-02-14T02:16:25;10.57;;;6.07;;
80384;SDS011;69702;44.618;33.604;2024-02-14T02:19:11;11.13;;;6.15;;
80384;SDS011;69702;44.618;33.604;2024-02-14T02:22:09;13.00;;;7.45;;
80384;SDS011;69702;44.618;33.604;2024-02-14T02:24:48;11.97;;;7.40;;
80384;SDS011;69702;44.618;33.604;2024-02-14T02:27:16;14.45;;;7.35;;
80384;SDS011;69702;44.618;33.604;2024-02-14T02:30:03;13.40;;;7.45;;
80384;SDS011;69702;44.618;33.604;2024-02-14T02:32:34;12.65;;;6.85;;
80384;SDS011;69702;44.618;33.604;2024-02-14T02:35:00;13.20;;;6.40;;
80384;SDS011;69702;44.618;33.604;2024-02-14T02:37:35;11.30;;;6.53;;
80384;SDS011;69702;44.618;33.604;2024-02-14T02:40:20;14.60;;;7.18;;
80384;SDS011;69702;44.618;33.604;2024-02-14T02:43:09;11.27;;;6.60;;
80384;SDS011;69702;44.618;33.604;2024-02-14T02:45:55;13.35;;;6.53;;
80384;SDS011;69702;44.618;33.604;2024-02-14T02:48:58;12.75;;;6.80;;
80384;SDS011;69702;44.618;33.604;2024-02-14T02:51:26;11.57;;;6.35;;
80384;SDS011;69702;44.618;33.604;2024-02-14T02:54:13;13.10;;;6.20;;
80384;SDS011;69702;44.618;33.604;2024-02-14T02:56:58;10.90;;;6.32;;
80384;SDS011;69702;44.618;33.604;2024-02-14T02:59:25;11.98;;;6.70;;
80384;SDS011;69702;44.618;33.604;2024-02-14T03:01:51;11.48;;;7.30;;
80384;SDS011;69702;44.618;33.604;2024-02-14T03:04:37;11.52;;;6.53;;
80384;SDS011;69702;44.618;33.604;2024-02-14T03:07:23;12.25;;;6.47;;
80384;SDS011;69702;44.618;33.604;2024-02-14T03:10:08;12.05;;;6.70;;
80384;SDS011;69702;44.618;33.604;2024-02-14T03:12:54;11.20;;;6.57;;
80384;SDS011;69702;44.618;33.604;2024-02-14T03:15:40;12.02;;;6.10;;
80384;SDS011;69702;44.618;33.604;2024-02-14T03:18:06;13.10;;;6.90;;
80384;SDS011;69702;44.618;33.604;2024-02-14T03:20:36;14.23;;;6.38;;
80384;SDS011;69702;44.618;33.604;2024-02-14T03:23:02;10.35;;;5.57;;
80384;SDS011;69702;44.618;33.604;2024-02-14T03:25:30;9.45;;;5.85;;
80384;SDS011;69702;44.618;33.604;2024-02-14T03:28:03;11.23;;;6.10;;
80384;SDS011;69702;44.618;33.604;2024-02-14T03:30:32;12.25;;;6.45;;
80384;SDS011;69702;44.618;33.604;2024-02-14T03:32:59;10.02;;;6.22;;
80384;SDS011;69702;44.618;33.604;2024-02-14T03:35:25;9.85;;;5.75;;
80384;SDS011;69702;44.618;33.604;2024-02-14T03:37:52;9.93;;;5.80;;
80384;SDS011;69702;44.618;33.604;2024-02-14T03:40:18;9.77;;;5.87;;
80384;SDS011;69702;44.618;33.604;2024-02-14T03:42:48;10.75;;;6.13;;
80384;SDS011;69702;44.618;33.604;2024-02-14T03:45:14;10.75;;;6.65;;
80384;SDS011;69702;44.618;33.604;2024-02-14T03:47:40;10.20;;;6.30;;
80384;SDS011;69702;44.618;33.604;2024-02-14T03:50:07;9.60;;;6.57;;
80384;SDS011;69702;44.618;33.604;2024-02-14T03:52:33;10.27;;;5.97;;
80384;SDS011;69702;44.618;33.604;2024-02-14T03:55:00;10.55;;;6.28;;
80384;SDS011;69702;44.618;33.604;2024-02-14T03:57:26;11.57;;;6.63;;
80384;SDS011;69702;44.618;33.604;2024-02-14T03:59:55;10.13;;;6.00;;
80384;SDS011;69702;44.618;33.604;2024-02-14T04:02:22;10.65;;;5.88;;
80384;SDS011;69702;44.618;33.604;2024-02-14T04:04:49;13.07;;;6.47;;
80384;SDS011;69702;44.618;33.604;2024-02-14T04:07:15;10.55;;;5.97;;
80384;SDS011;69702;44.618;33.604;2024-02-14T04:09:40;10.85;;;6.60;;
80384;SDS011;69702;44.618;33.604;2024-02-14T04:12:06;13.82;;;6.70;;
80384;SDS011;69702;44.618;33.604;2024-02-14T04:14:32;13.88;;;6.35;;
80384;SDS011;69702;44.618;33.604;2024-02-14T04:16:58;15.70;;;6.63;;
80384;SDS011;69702;44.618;33.604;2024-02-14T04:19:24;13.20;;;6.28;;
80384;SDS011;69702;44.618;33.604;2024-02-14T04:21:50;10.45;;;5.80;;
80384;SDS011;69702;44.618;33.604;2024-02-14T04:24:16;12.93;;;6.97;;
80384;SDS011;69702;44.618;33.604;2024-02-14T04:26:42;27.92;;;17.15;;
80384;SDS011;69702;44.618;33.604;2024-02-14T04:29:08;11.73;;;7.35;;
80384;SDS011;69702;44.618;33.604;2024-02-14T04:31:34;12.07;;;7.57;;
80384;SDS011;69702;44.618;33.604;2024-02-14T04:34:08;12.45;;;7.22;;
80384;SDS011;69702;44.618;33.604;2024-02-14T04:36:35;12.88;;;7.88;;
80384;SDS011;69702;44.618;33.604;2024-02-14T04:39:01;13.95;;;8.18;;
80384;SDS011;69702;44.618;33.604;2024-02-14T04:41:28;15.85;;;8.35;;
80384;SDS011;69702;44.618;33.604;2024-02-14T04:43:54;14.83;;;7.90;;
80384;SDS011;69702;44.618;33.604;2024-02-14T04:46:20;14.35;;;8.35;;
80384;SDS011;69702;44.618;33.604;2024-02-14T04:48:48;12.77;;;7.80;;
80384;SDS011;69702;44.618;33.604;2024-02-14T04:51:13;12.77;;;7.03;;
80384;SDS011;69702;44.618;33.604;2024-02-14T04:53:39;13.30;;;8.00;;
80384;SDS011;69702;44.618;33.604;2024-02-14T04:56:05;11.55;;;6.40;;
80384;SDS011;69702;44.618;33.604;2024-02-14T04:58:31;12.20;;;6.77;;
80384;SDS011;69702;44.618;33.604;2024-02-14T05:00:57;13.05;;;6.40;;
80384;SDS011;69702;44.618;33.604;2024-02-14T05:03:23;12.73;;;7.20;;
80384;SDS011;69702;44.618;33.604;2024-02-14T05:05:50;15.30;;;7.28;;
80384;SDS011;69702;44.618;33.604;2024-02-14T05:08:17;11.35;;;6.57;;
80384;SDS011;69702;44.618;33.604;2024-02-14T05:10:43;12.65;;;6.60;;
80384;SDS011;69702;44.618;33.604;2024-02-14T05:13:09;12.05;;;6.50;;
80384;SDS011;69702;44.618;33.604;2024-02-14T05:15:34;11.23;;;6.90;;
80384;SDS011;69702;44.618;33.604;2024-02-14T05:18:01;12.35;;;7.63;;
80384;SDS011;69702;44.618;33.604;2024-02-14T05:20:27;18.60;;;7.90;;
80384;SDS011;69702;44.618;33.604;2024-02-14T05:22:53;13.25;;;8.20;;
80384;SDS011;69702;44.618;33.604;2024-02-14T05:25:20;11.93;;;7.07;;
80384;SDS011;69702;44.618;33.604;2024-02-14T05:27:59;13.23;;;7.80;;
80384;SDS011;69702;44.618;33.604;2024-02-14T05:30:27;11.98;;;6.57;;
80384;SDS011;69702;44.618;33.604;2024-02-14T05:33:12;13.43;;;8.65;;
80384;SDS011;69702;44.618;33.604;2024-02-14T05:35:38;16.38;;;10.00;;
80384;SDS011;69702;44.618;33.604;2024-02-14T05:38:04;15.67;;;8.43;;
80384;SDS011;69702;44.618;33.604;2024-02-14T05:40:34;13.07;;;8.30;;
80384;SDS011;69702;44.618;33.604;2024-02-14T05:43:01;12.23;;;7.50;;
80384;SDS011;69702;44.618;33.604;2024-02-14T05:45:27;12.45;;;6.75;;
80384;SDS011;69702;44.618;33.604;2024-02-14T05:47:53;12.70;;;6.97;;
80384;SDS011;69702;44.618;33.604;2024-02-14T05:50:19;13.05;;;7.35;;
80384;SDS011;69702;44.618;33.604;2024-02-14T05:52:45;10.60;;;6.47;;
80384;SDS011;69702;44.618;33.604;2024-02-14T05:55:10;11.75;;;6.25;;
80384;SDS011;69702;44.618;33.604;2024-02-14T05:57:50;11.55;;;6.43;;
80384;SDS011;69702;44.618;33.604;2024-02-14T06:00:17;10.75;;;6.38;;
80384;SDS011;69702;44.618;33.604;2024-02-14T06:02:44;11.27;;;7.60;;
80384;SDS011;69702;44.618;33.604;2024-02-14T06:05:10;10.95;;;6.80;;
80384;SDS011;69702;44.618;33.604;2024-02-14T06:07:36;11.35;;;7.60;;
80384;SDS011;69702;44.618;33.604;2024-02-14T06:10:02;11.73;;;6.55;;
80384;SDS011;69702;44.618;33.604;2024-02-14T06:12:31;11.18;;;7.45;;
80384;SDS011;69702;44.618;33.604;2024-02-14T06:14:57;11.83;;;6.50;;
80384;SDS011;69702;44.618;33.604;2024-02-14T06:17:23;10.80;;;6.47;;
80384;SDS011;69702;44.618;33.604;2024-02-14T06:19:49;11.20;;;6.47;;
80384;SDS011;69702;44.618;33.604;2024-02-14T06:22:15;11.37;;;6.90;;
80384;SDS011;69702;44.618;33.604;2024-02-14T06:24:40;11.45;;;6.97;;
80384;SDS011;69702;44.618;33.604;2024-02-14T06:27:06;12.98;;;7.35;;
80384;SDS011;69702;44.618;33.604;2024-02-14T06:29:32;11.10;;;7.00;;
80384;SDS011;69702;44.618;33.604;2024-02-14T06:31:58;12.50;;;7.28;;
80384;SDS011;69702;44.618;33.604;2024-02-14T06:34:24;11.47;;;6.80;;
80384;SDS011;69702;44.618;33.604;2024-02-14T06:36:51;12.57;;;7.70;;
80384;SDS011;69702;44.618;33.604;2024-02-14T06:39:17;12.35;;;6.70;;
80384;SDS011;69702;44.618;33.604;2024-02-14T06:41:43;12.00;;;6.82;;
80384;SDS011;69702;44.618;33.604;2024-02-14T06:44:10;14.50;;;7.70;;
80384;SDS011;69702;44.618;33.604;2024-02-14T06:46:36;14.23;;;8.30;;
80384;SDS011;69702;44.618;33.604;2024-02-14T06:49:03;13.20;;;7.78;;
80384;SDS011;69702;44.618;33.604;2024-02-14T11:06:47;11.73;;;8.00;;
80384;SDS011;69702;44.618;33.604;2024-02-14T11:09:14;14.27;;;8.27;;
80384;SDS011;69702;44.618;33.604;2024-02-14T11:11:44;10.65;;;7.40;;
80384;SDS011;69702;44.618;33.604;2024-02-14T11:14:15;11.95;;;7.78;;
80384;SDS011;69702;44.618;33.604;2024-02-14T11:16:45;14.43;;;7.57;;
80384;SDS011;69702;44.618;33.604;2024-02-14T11:19:12;13.10;;;8.05;;
80384;SDS011;69702;44.618;33.604;2024-02-14T11:21:42;11.00;;;6.82;;
80384;SDS011;69702;44.618;33.604;2024-02-14T11:24:12;12.88;;;6.80;;
80384;SDS011;69702;44.618;33.604;2024-02-14T11:26:48;11.88;;;7.88;;
80384;SDS011;69702;44.618;33.604;2024-02-14T11:29:18;13.32;;;7.30;;
80384;SDS011;69702;44.618;33.604;2024-02-14T11:31:45;11.80;;;7.78;;
80384;SDS011;69702;44.618;33.604;2024-02-14T11:34:14;10.32;;;6.97;;
80384;SDS011;69702;44.618;33.604;2024-02-14T11:36:44;12.02;;;8.05;;
80384;SDS011;69702;44.618;33.604;2024-02-14T11:39:11;9.85;;;6.50;;
80384;SDS011;69702;44.618;33.604;2024-02-14T11:41:40;10.35;;;7.43;;
80384;SDS011;69702;44.618;33.604;2024-02-14T11:44:08;10.38;;;6.88;;
80384;SDS011;69702;44.618;33.604;2024-02-14T11:46:35;9.63;;;6.68;;
80384;SDS011;69702;44.618;33.604;2024-02-14T11:49:02;10.65;;;7.35;;
80384;SDS011;69702;44.618;33.604;2024-02-14T11:51:30;9.55;;;5.93;;
80384;SDS011;69702;44.618;33.604;2024-02-14T11:53:57;8.45;;;6.28;;
80384;SDS011;69702;44.618;33.604;2024-02-14T11:56:31;8.18;;;5.40;;
80384;SDS011;69702;44.618;33.604;2024-02-14T11:59:07;7.60;;;4.63;;
80384;SDS011;69702;44.618;33.604;2024-02-14T12:01:34;10.10;;;7.78;;
80384;SDS011;69702;44.618;33.604;2024-02-14T12:04:02;7.75;;;5.85;;
80384;SDS011;69702;44.618;33.604;2024-02-14T12:06:30;6.07;;;4.28;;
80384;SDS011;69702;44.618;33.604;2024-02-14T12:08:58;7.75;;;4.90;;
80384;SDS011;69702;44.618;33.604;2024-02-14T12:11:31;6.55;;;4.68;;
80384;SDS011;69702;44.618;33.604;2024-02-14T12:14:01;6.03;;;4.07;;
80384;SDS011;69702;44.618;33.604;2024-02-14T12:16:37;5.53;;;4.00;;
80384;SDS011;69702;44.618;33.604;2024-02-14T12:21:41;7.68;;;5.05;;
80384;SDS011;69702;44.618;33.604;2024-02-14T12:24:09;5.50;;;3.90;;
80384;SDS011;69702;44.618;33.604;2024-02-14T12:26:36;6.22;;;4.45;;
80384;SDS011;69702;44.618;33.604;2024-02-14T12:29:03;7.13;;;5.18;;
80384;SDS011;69702;44.618;33.604;2024-02-14T12:31:31;5.85;;;4.10;;
80384;SDS011;69702;44.618;33.604;2024-02-14T12:33:58;6.97;;;4.70;;
80384;SDS011;69702;44.618;33.604;2024-02-14T12:36:27;5.78;;;4.10;;
80384;SDS011;69702;44.618;33.604;2024-02-14T12:38:56;7.97;;;4.38;;
80384;SDS011;69702;44.618;33.604;2024-02-14T12:41:23;7.05;;;4.53;;
80384;SDS011;69702;44.618;33.604;2024-02-14T12:43:51;7.20;;;4.88;;
80384;SDS011;69702;44.618;33.604;2024-02-14T12:46:18;6.80;;;5.10;;
80384;SDS011;69702;44.618;33.604;2024-02-14T12:48:44;8.10;;;6.13;;
80384;SDS011;69702;44.618;33.604;2024-02-14T12:51:10;7.75;;;5.38;;
80384;SDS011;69702;44.618;33.604;2024-02-14T12:53:36;6.82;;;5.45;;
80384;SDS011;69702;44.618;33.604;2024-02-14T12:56:02;7.82;;;5.63;;
80384;SDS011;69702;44.618;33.604;2024-02-14T12:58:31;9.85;;;7.40;;
80384;SDS011;69702;44.618;33.604;2024-02-14T13:00:57;9.55;;;5.03;;
80384;SDS011;69702;44.618;33.604;2024-02-14T13:03:24;8.73;;;5.00;;
80384;SDS011;69702;44.618;33.604;2024-02-14T13:05:50;7.82;;;5.93;;
80384;SDS011;69702;44.618;33.604;2024-02-14T13:08:18;8.20;;;5.50;;
80384;SDS011;69702;44.618;33.604;2024-02-14T13:10:45;10.45;;;6.50;;
80384;SDS011;69702;44.618;33.604;2024-02-14T13:13:11;9.63;;;5.60;;
80384;SDS011;69702;44.618;33.604;2024-02-14T13:15:37;11.98;;;9.45;;
80384;SDS011;69702;44.618;33.604;2024-02-14T13:18:04;12.60;;;7.95;;
80384;SDS011;69702;44.618;33.604;2024-02-14T13:20:30;19.73;;;12.85;;
80384;SDS011;69702;44.618;33.604;2024-02-14T13:22:56;10.93;;;7.32;;
80384;SDS011;69702;44.618;33.604;2024-02-14T13:25:22;8.80;;;5.32;;
80384;SDS011;69702;44.618;33.604;2024-02-14T13:27:48;8.88;;;5.57;;
80384;SDS011;69702;44.618;33.604;2024-02-14T13:30:14;8.13;;;5.90;;
80384;SDS011;69702;44.618;33.604;2024-02-14T13:32:41;11.25;;;7.50;;
80384;SDS011;69702;44.618;33.604;2024-02-14T13:35:07;12.55;;;7.78;;
80384;SDS011;69702;44.618;33.604;2024-02-14T13:37:35;14.95;;;8.43;;
80384;SDS011;69702;44.618;33.604;2024-02-14T13:40:01;15.48;;;9.38;;
80384;SDS011;69702;44.618;33.604;2024-02-14T13:42:30;16.27;;;8.43;;
80384;SDS011;69702;44.618;33.604;2024-02-14T13:44:56;15.52;;;9.57;;
80384;SDS011;69702;44.618;33.604;2024-02-14T13:47:22;14.65;;;7.68;;
80384;SDS011;69702;44.618;33.604;2024-02-14T13:49:50;17.15;;;8.82;;
80384;SDS011;69702;44.618;33.604;2024-02-14T13:52:17;15.18;;;9.55;;
80384;SDS011;69702;44.618;33.604;2024-02-14T13:54:43;14.38;;;9.23;;
80384;SDS011;69702;44.618;33.604;2024-02-14T13:57:09;17.08;;;9.32;;
80384;SDS011;69702;44.618;33.604;2024-02-14T13:59:37;13.82;;;8.27;;
80384;SDS011;69702;44.618;33.604;2024-02-14T14:02:03;15.43;;;9.60;;
80384;SDS011;69702;44.618;33.604;2024-02-14T14:04:29;24.42;;;13.73;;
80384;SDS011;69702;44.618;33.604;2024-02-14T14:06:55;14.75;;;8.50;;
80384;SDS011;69702;44.618;33.604;2024-02-14T14:09:22;13.48;;;8.05;;
80384;SDS011;69702;44.618;33.604;2024-02-14T14:11:48;14.13;;;7.65;;
80384;SDS011;69702;44.618;33.604;2024-02-14T14:14:16;9.93;;;7.10;;
80384;SDS011;69702;44.618;33.604;2024-02-14T14:16:44;10.30;;;7.13;;
80384;SDS011;69702;44.618;33.604;2024-02-14T14:19:10;16.50;;;10.35;;
80384;SDS011;69702;44.618;33.604;2024-02-14T14:21:37;13.70;;;8.25;;
80384;SDS011;69702;44.618;33.604;2024-02-14T14:24:04;11.75;;;7.30;;
80384;SDS011;69702;44.618;33.604;2024-02-14T14:26:30;10.38;;;7.13;;
80384;SDS011;69702;44.618;33.604;2024-02-14T14:28:56;12.15;;;7.05;;
80384;SDS011;69702;44.618;33.604;2024-02-14T14:31:22;14.95;;;8.70;;
80384;SDS011;69702;44.618;33.604;2024-02-14T14:33:48;18.42;;;9.82;;
80384;SDS011;69702;44.618;33.604;2024-02-14T14:36:14;22.05;;;11.07;;
80384;SDS011;69702;44.618;33.604;2024-02-14T14:38:40;19.17;;;10.65;;
80384;SDS011;69702;44.618;33.604;2024-02-14T14:41:06;18.80;;;10.55;;
80384;SDS011;69702;44.618;33.604;2024-02-14T14:43:33;17.23;;;10.45;;
80384;SDS011;69702;44.618;33.604;2024-02-14T14:45:59;18.65;;;10.75;;
80384;SDS011;69702;44.618;33.604;2024-02-14T14:48:25;16.52;;;11.70;;
80384;SDS011;69702;44.618;33.604;2024-02-14T14:50:51;15.97;;;10.87;;
80384;SDS011;69702;44.618;33.604;2024-02-14T14:53:18;18.75;;;11.18;;
80384;SDS011;69702;44.618;33.604;2024-02-14T14:58:25;21.85;;;13.77;;
80384;SDS011;69702;44.618;33.604;2024-02-14T15:00:59;17.80;;;11.15;;
80384;SDS011;69702;44.618;33.604;2024-02-14T15:03:26;15.90;;;10.77;;
80384;SDS011;69702;44.618;33.604;2024-02-14T15:05:52;20.30;;;11.27;;
80384;SDS011;69702;44.618;33.604;2024-02-14T15:08:23;18.67;;;10.82;;
80384;SDS011;69702;44.618;33.604;2024-02-14T15:10:51;21.63;;;13.65;;
80384;SDS011;69702;44.618;33.604;2024-02-14T15:13:18;22.03;;;14.27;;
80384;SDS011;69702;44.618;33.604;2024-02-14T15:15:45;18.95;;;13.00;;
80384;SDS011;69702;44.618;33.604;2024-02-14T15:18:11;26.20;;;17.77;;
80384;SDS011;69702;44.618;33.604;2024-02-14T15:20:37;23.63;;;12.75;;
80384;SDS011;69702;44.618;33.604;2024-02-14T15:23:03;20.60;;;13.38;;
80384;SDS011;69702;44.618;33.604;2024-02-14T15:25:30;23.35;;;14.10;;
80384;SDS011;69702;44.618;33.604;2024-02-14T15:27:56;23.15;;;14.23;;
80384;SDS011;69702;44.618;33.604;2024-02-14T15:30:23;18.83;;;11.60;;
80384;SDS011;69702;44.618;33.604;2024-02-14T15:33:08;23.17;;;13.20;;
80384;SDS011;69702;44.618;33.604;2024-02-14T15:35:49;19.73;;;11.45;;
80384;SDS011;69702;44.618;33.604;2024-02-14T15:38:17;17.37;;;12.17;;
80384;SDS011;69702;44.618;33.604;2024-02-14T15:40:45;21.58;;;12.98;;
80384;SDS011;69702;44.618;33.604;2024-02-14T15:43:12;20.17;;;12.50;;
80384;SDS011;69702;44.618;33.604;2024-02-14T15:45:38;22.45;;;14.00;;
80384;SDS011;69702;44.618;33.604;2024-02-14T15:48:05;22.83;;;13.40;;
80384;SDS011;69702;44.618;33.604;2024-02-14T15:50:33;21.97;;;13.30;;
80384;SDS011;69702;44.618;33.604;2024-02-14T15:53:00;20.92;;;14.00;;
80384;SDS011;69702;44.618;33.604;2024-02-14T15:55:27;19.05;;;12.68;;
80384;SDS011;69702;44.618;33.604;2024-02-14T15:57:53;21.10;;;13.43;;
80384;SDS011;69702;44.618;33.604;2024-02-14T16:00:19;20.05;;;12.40;;
80384;SDS011;69702;44.618;33.604;2024-02-14T16:02:46;21.10;;;12.60;;
80384;SDS011;69702;44.618;33.604;2024-02-14T16:05:13;20.92;;;13.82;;
80384;SDS011;69702;44.618;33.604;2024-02-14T16:07:39;22.08;;;13.52;;
80384;SDS011;69702;44.618;33.604;2024-02-14T16:10:05;22.17;;;14.13;;
80384;SDS011;69702;44.618;33.604;2024-02-14T16:12:32;21.20;;;13.70;;
80384;SDS011;69702;44.618;33.604;2024-02-14T16:14:58;22.93;;;15.43;;
80384;SDS011;69702;44.618;33.604;2024-02-14T16:17:24;20.95;;;13.20;;
80384;SDS011;69702;44.618;33.604;2024-02-14T16:19:50;22.75;;;14.52;;
80384;SDS011;69702;44.618;33.604;2024-02-14T16:22:17;19.02;;;13.15;;
80384;SDS011;69702;44.618;33.604;2024-02-14T16:24:43;23.08;;;14.23;;
80384;SDS011;69702;44.618;33.604;2024-02-14T16:27:12;22.75;;;13.52;;
80384;SDS011;69702;44.618;33.604;2024-02-14T16:29:38;21.13;;;13.18;;
80384;SDS011;69702;44.618;33.604;2024-02-14T16:32:06;22.02;;;14.38;;
80384;SDS011;69702;44.618;33.604;2024-02-14T16:34:35;23.42;;;13.70;;
80384;SDS011;69702;44.618;33.604;2024-02-14T16:37:02;25.33;;;15.30;;
80384;SDS011;69702;44.618;33.604;2024-02-14T16:39:28;26.53;;;14.60;;
80384;SDS011;69702;44.618;33.604;2024-02-14T16:41:54;23.13;;;14.05;;
80384;SDS011;69702;44.618;33.604;2024-02-14T16:44:20;23.08;;;14.57;;
80384;SDS011;69702;44.618;33.604;2024-02-14T16:46:46;22.02;;;13.57;;
80384;SDS011;69702;44.618;33.604;2024-02-14T16:49:12;23.85;;;13.48;;
80384;SDS011;69702;44.618;33.604;2024-02-14T16:51:38;24.77;;;14.40;;
80384;SDS011;69702;44.618;33.604;2024-02-14T16:54:05;22.33;;;13.60;;
80384;SDS011;69702;44.618;33.604;2024-02-14T16:56:31;22.27;;;13.80;;
80384;SDS011;69702;44.618;33.604;2024-02-14T16:59:26;22.88;;;13.95;;
80384;SDS011;69702;44.618;33.604;2024-02-14T17:01:52;25.52;;;15.70;;
80384;SDS011;69702;44.618;33.604;2024-02-14T17:04:19;26.37;;;15.07;;
80384;SDS011;69702;44.618;33.604;2024-02-14T17:06:45;24.05;;;15.70;;
80384;SDS011;69702;44.618;33.604;2024-02-14T17:09:11;27.38;;;17.08;;
80384;SDS011;69702;44.618;33.604;2024-02-14T17:11:38;25.27;;;16.45;;
80384;SDS011;69702;44.618;33.604;2024-02-14T17:14:04;24.58;;;15.93;;
80384;SDS011;69702;44.618;33.604;2024-02-14T17:16:34;25.58;;;16.13;;
80384;SDS011;69702;44.618;33.604;2024-02-14T17:19:00;25.73;;;14.90;;
80384;SDS011;69702;44.618;33.604;2024-02-14T17:21:26;25.17;;;14.80;;
80384;SDS011;69702;44.618;33.604;2024-02-14T17:23:52;24.02;;;13.90;;
80384;SDS011;69702;44.618;33.604;2024-02-14T17:26:18;27.63;;;16.45;;
80384;SDS011;69702;44.618;33.604;2024-02-14T17:28:44;28.57;;;14.67;;
80384;SDS011;69702;44.618;33.604;2024-02-14T17:31:10;26.42;;;15.88;;
80384;SDS011;69702;44.618;33.604;2024-02-14T17:33:36;26.98;;;15.05;;
80384;SDS011;69702;44.618;33.604;2024-02-14T17:36:03;30.80;;;17.63;;
80384;SDS011;69702;44.618;33.604;2024-02-14T17:38:29;28.83;;;14.68;;
80384;SDS011;69702;44.618;33.604;2024-02-14T17:40:56;28.03;;;14.30;;
80384;SDS011;69702;44.618;33.604;2024-02-14T17:43:22;29.27;;;16.00;;
80384;SDS011;69702;44.618;33.604;2024-02-14T17:45:49;30.27;;;15.30;;
80384;SDS011;69702;44.618;33.604;2024-02-14T17:48:15;26.70;;;14.95;;
80384;SDS011;69702;44.618;33.604;2024-02-14T17:50:41;30.85;;;18.52;;
80384;SDS011;69702;44.618;33.604;2024-02-14T17:53:08;31.73;;;15.53;;
80384;SDS011;69702;44.618;33.604;2024-02-14T17:55:34;31.17;;;16.70;;
80384;SDS011;69702;44.618;33.604;2024-02-14T17:58:00;31.40;;;17.13;;
80384;SDS011;69702;44.618;33.604;2024-02-14T18:00:30;31.27;;;17.30;;
80384;SDS011;69702;44.618;33.604;2024-02-14T18:02:56;34.65;;;17.52;;
80384;SDS011;69702;44.618;33.604;2024-02-14T18:05:22;32.00;;;18.60;;
80384;SDS011;69702;44.618;33.604;2024-02-14T18:07:48;33.15;;;17.23;;
80384;SDS011;69702;44.618;33.604;2024-02-14T18:10:15;31.45;;;17.80;;
80384;SDS011;69702;44.618;33.604;2024-02-14T18:12:41;32.08;;;19.23;;
80384;SDS011;69702;44.618;33.604;2024-02-14T18:15:08;30.95;;;17.50;;
80384;SDS011;69702;44.618;33.604;2024-02-14T18:17:34;31.63;;;17.93;;
80384;SDS011;69702;44.618;33.604;2024-02-14T18:20:01;30.08;;;16.95;;
80384;SDS011;69702;44.618;33.604;2024-02-14T18:22:30;30.90;;;17.38;;
80384;SDS011;69702;44.618;33.604;2024-02-14T18:24:56;31.15;;;17.05;;
80384;SDS011;69702;44.618;33.604;2024-02-14T18:27:24;29.02;;;16.90;;
80384;SDS011;69702;44.618;33.604;2024-02-14T18:29:53;27.43;;;16.57;;
80384;SDS011;69702;44.618;33.604;2024-02-14T18:32:19;29.40;;;16.58;;
80384;SDS011;69702;44.618;33.604;2024-02-14T18:34:46;31.02;;;17.77;;
80384;SDS011;69702;44.618;33.604;2024-02-14T18:37:12;29.50;;;16.80;;
80384;SDS011;69702;44.618;33.604;2024-02-14T18:39:38;30.08;;;17.20;;
80384;SDS011;69702;44.618;33.604;2024-02-14T18:42:04;27.77;;;15.77;;
80384;SDS011;69702;44.618;33.604;2024-02-14T18:44:30;29.65;;;16.98;;